Drummond Island, MI (49726)

5:54 PM EDT on September 04, 2015 (GMT -0400)
Potagannissing Bay Front | | Change Station
CLOSE
Current Station
Personal Weather Station
Location: Drummond Island, MI
Elevation: 587 ft
Nearby Weather Stations

Elev 587 ft 46.06 °N, 83.67 °W | Updated 6 seconds ago

Scattered Clouds
Scattered Clouds
76.4 °F
Feels Like 78 °F
N
3.0
Wind Variable Wind from ESE
Gusts 11.0 mph

Today
High -- | Low -- °F
--% Chance of Precip.
Yesterday
High -- | Low -- °F
Precip. -- in
6:59 AM 8:07 PM
Waning Gibbous, 55% visible
Pressure 30.09 in
Visibility 10.0 miles
Clouds Scattered Clouds 10000 ft
Scattered Clouds 12000 ft
Heat Index 78 °F
Dew Point 69 °F
Humidity 77%
Rainfall 0.00 in
Snow Depth Not available.
UV 2 out of 12
Pollen 10.10 out of 12
Air Quality Not available.
Flu Activity Not available.
METAR KDRM 042134Z AUTO 13005KT 10SM SCT100 SCT120 24/19 A3009 RMK AO2 T02380194
Pressure 30.09 in
Visibility 10.0 miles
Clouds Scattered Clouds 10000 ft
Scattered Clouds 12000 ft
Heat Index 78 °F
Dew Point 69 °F
Humidity 77%
Rainfall 0.00 in
Snow Depth Not available.
UV 2 out of 12
Pollen 10.10 out of 12
Air Quality Not available.
Flu Activity Not available.
METAR KDRM 042134Z AUTO 13005KT 10SM SCT100 SCT120 24/19 A3009 RMK AO2 T02380194
Nowcast | as of 5:00 PM EDT on September 4, 2015

At 6 PM...partly cloudy. Temperature 76. Southeast winds 10 mph. At 8 PM...partly cloudy. Temperature 72. Southeast winds 7 mph. At 10 PM...mostly cloudy. Temperature 71. East winds 7 mph. At 12 am...mostly cloudy. Areas of fog. Isolated showers. Temperature 70. East winds 7 mph.

×

10-Day Weather Forecast

×

Almanac

Astronomy

Sep. 04, 2015 Rise Set
Actual Time
Civil Twilight
Nautical Twilight
Astronomical Twilight
Moon
Length of Visible Light
Length of Day
Tomorrow will be .
, % of the Moon is Illuminated

Today's Extremes

State Highs State Lows

Community

WunderPhotos

Upload Photos

1,852,297 photos uploaded!

WunderBlogs® & News

Nearby

Air Quality

  Air Quality AQ Index Pollutant
Not available.

Snow Depth

Station Depth Elevation

Earthquake Activity

City Distance Mag. Time & Date
Minimum magnitude displayed is 2.5.

Coastal Water Temperatures

Place Temperature

Stations

Nearby Weather Stations

Station Location Temp. Windchill Dew Point Humidity Wind Precip. Elev Updated Type